Time;durP1;ratioP1;P1;durP2;ratioP2;P2;SDS_P1;SDS_P2;PMS_P1;PMS_P2;Temp;Humidity;BMP_temperature;BMP_pressure;BME280_temperature;BME280_humidity;BME280_pressure;Samples;Min_cycle;Max_cycle;Signal;HPM_P1;HPM_P2
2021/11/23 00:00:10;;;;;;;20.38;14.32;;;;;;;-0.13;100.00;102554.78;5061085;28;20047;-81
2021/11/23 00:02:37;;;;;;;18.42;14.13;;;;;;;-0.06;100.00;102543.97;5059510;28;20036;-81
2021/11/23 00:05:04;;;;;;;19.15;14.43;;;;;;;-0.12;100.00;102557.34;5046830;28;20123;-81
2021/11/23 00:07:29;;;;;;;19.80;13.23;;;;;;;-0.16;100.00;102560.16;5062489;28;20047;-81
2021/11/23 00:09:55;;;;;;;21.10;13.32;;;;;;;-0.17;100.00;102551.38;5063573;28;20041;-81
2021/11/23 00:12:20;;;;;;;17.38;13.18;;;;;;;-0.16;100.00;102554.88;5057066;28;20036;-81
2021/11/23 00:14:46;;;;;;;19.20;13.38;;;;;;;-0.21;100.00;102548.88;5062182;28;20623;-81
2021/11/23 00:17:11;;;;;;;18.83;13.18;;;;;;;-0.15;100.00;102546.03;5028000;28;20519;-81
2021/11/23 00:19:37;;;;;;;17.50;12.82;;;;;;;-0.27;100.00;102548.16;5055328;28;20029;-81
2021/11/23 00:22:02;;;;;;;17.48;12.00;;;;;;;-0.29;100.00;102550.03;5045366;28;20048;-81
2021/11/23 00:24:28;;;;;;;20.35;14.15;;;;;;;-0.23;100.00;102548.97;5043106;28;20045;-81
2021/11/23 00:26:53;;;;;;;18.73;12.98;;;;;;;-0.14;100.00;102558.34;5060451;28;20162;-81
2021/11/23 00:29:19;;;;;;;17.23;12.82;;;;;;;-0.20;100.00;102554.13;5058267;28;20094;-81
2021/11/23 00:31:44;;;;;;;18.75;12.52;;;;;;;-0.16;100.00;102550.47;5045687;28;20036;-81
2021/11/23 00:34:09;;;;;;;17.05;12.75;;;;;;;-0.16;100.00;102545.19;5061628;28;20045;-81
2021/11/23 00:36:35;;;;;;;17.55;12.70;;;;;;;-0.12;100.00;102538.88;5043060;28;20128;-81
2021/11/23 00:39:00;;;;;;;16.23;11.82;;;;;;;-0.13;100.00;102528.38;5061313;28;20435;-81
2021/11/23 00:41:26;;;;;;;15.88;11.68;;;;;;;-0.15;100.00;102528.41;5038609;28;20051;-81
2021/11/23 00:43:51;;;;;;;16.17;13.30;;;;;;;-0.05;100.00;102531.63;5058829;28;20086;-81
2021/11/23 00:46:17;;;;;;;16.10;13.32;;;;;;;0.04;100.00;102531.28;5028372;28;20053;-80
2021/11/23 00:48:43;;;;;;;16.90;13.57;;;;;;;0.04;100.00;102539.22;5042631;28;20041;-80
2021/11/23 00:51:08;;;;;;;17.50;13.05;;;;;;;0.09;100.00;102534.66;5063337;28;20041;-80
2021/11/23 00:53:35;;;;;;;18.25;12.38;;;;;;;0.14;100.00;102515.97;5056167;28;20067;-80
2021/11/23 00:56:05;;;;;;;17.48;13.63;;;;;;;0.21;100.00;102518.34;5048510;28;20041;-80
2021/11/23 00:58:31;;;;;;;20.27;16.30;;;;;;;0.31;100.00;102524.16;5040541;28;20049;-80
2021/11/23 01:00:56;;;;;;;20.20;14.73;;;;;;;0.34;100.00;102528.47;5031677;28;20068;-80
2021/11/23 01:03:22;;;;;;;22.00;15.15;;;;;;;0.37;100.00;102523.06;5041875;28;20500;-80
2021/11/23 01:05:49;;;;;;;18.85;14.50;;;;;;;0.40;100.00;102529.13;5063502;28;20040;-80
2021/11/23 01:08:16;;;;;;;21.50;15.13;;;;;;;0.47;100.00;102529.75;5061591;28;20049;-80
2021/11/23 01:10:42;;;;;;;20.77;14.63;;;;;;;0.52;100.00;102527.81;5056439;28;20044;-80
2021/11/23 01:13:08;;;;;;;16.45;14.02;;;;;;;0.53;100.00;102523.38;5048283;28;20420;-80
2021/11/23 01:15:34;;;;;;;19.50;13.50;;;;;;;0.56;100.00;102523.25;5065693;28;20382;-80
2021/11/23 01:17:59;;;;;;;16.90;13.23;;;;;;;0.61;100.00;102522.19;5066899;28;20056;-80
2021/11/23 01:20:25;;;;;;;20.30;14.80;;;;;;;0.63;100.00;102517.69;5067191;28;20431;-80
2021/11/23 01:22:52;;;;;;;20.98;14.48;;;;;;;0.64;100.00;102516.78;5069362;28;20398;-81
2021/11/23 01:25:18;;;;;;;20.90;14.77;;;;;;;0.67;100.00;102519.31;5051517;28;20041;-80
2021/11/23 01:27:43;;;;;;;20.10;15.82;;;;;;;0.71;100.00;102513.91;5033738;28;20032;-81
2021/11/23 01:30:11;;;;;;;23.00;16.10;;;;;;;0.75;100.00;102511.09;5069268;28;20033;-81
2021/11/23 01:32:37;;;;;;;22.40;15.20;;;;;;;0.82;100.00;102519.63;5067031;28;20131;-81
2021/11/23 01:35:03;;;;;;;21.55;16.13;;;;;;;0.84;100.00;102515.16;5069038;28;20097;-80
2021/11/23 01:37:29;;;;;;;20.90;16.40;;;;;;;0.86;100.00;102519.47;5067482;28;20045;-80
2021/11/23 01:39:54;;;;;;;20.65;14.88;;;;;;;0.88;100.00;102516.75;5069491;28;20409;-81
2021/11/23 01:42:20;;;;;;;20.70;15.18;;;;;;;0.91;100.00;102511.34;5050686;28;20485;-81
2021/11/23 01:44:45;;;;;;;19.73;15.27;;;;;;;0.92;100.00;102515.69;5050682;28;20047;-81
2021/11/23 01:47:10;;;;;;;19.77;14.98;;;;;;;0.93;100.00;102512.16;5064866;28;20401;-81
2021/11/23 01:49:36;;;;;;;26.08;15.80;;;;;;;0.95;100.00;102510.31;5042555;28;20068;-81
2021/11/23 01:52:01;;;;;;;21.45;16.10;;;;;;;1.02;100.00;102516.22;5046231;28;20041;-81
2021/11/23 01:54:27;;;;;;;20.42;15.60;;;;;;;1.01;100.00;102510.06;5050238;28;20632;-81
2021/11/23 01:56:52;;;;;;;21.75;17.10;;;;;;;1.07;100.00;102504.53;5036289;28;20041;-81
2021/11/23 01:59:18;;;;;;;19.63;13.70;;;;;;;1.04;100.00;102499.38;5051260;28;20036;-82
2021/11/23 02:01:43;;;;;;;21.90;18.23;;;;;;;1.09;100.00;102492.13;5050633;28;20051;-81
2021/11/23 02:04:08;;;;;;;27.70;19.45;;;;;;;1.28;100.00;102488.72;5050987;28;20510;-82
2021/11/23 02:06:34;;;;;;;26.25;19.85;;;;;;;1.40;100.00;102485.56;5068293;28;20044;-82
2021/11/23 02:09:00;;;;;;;28.23;19.98;;;;;;;1.50;100.00;102486.91;5051178;28;20032;-82
2021/11/23 02:11:26;;;;;;;28.95;20.25;;;;;;;1.56;100.00;102476.06;5066612;28;20040;-82
2021/11/23 02:13:51;;;;;;;25.58;19.20;;;;;;;1.64;100.00;102477.50;5068567;28;20045;-82
2021/11/23 02:16:17;;;;;;;29.48;20.63;;;;;;;1.74;100.00;102484.16;5068584;28;20048;-82
2021/11/23 02:18:42;;;;;;;28.70;20.52;;;;;;;1.79;100.00;102484.81;5050928;28;20101;-82
2021/11/23 02:21:08;;;;;;;25.23;19.73;;;;;;;1.85;100.00;102487.19;5050765;28;20047;-82
2021/11/23 02:23:34;;;;;;;28.00;20.42;;;;;;;1.94;100.00;102481.50;5066824;28;20040;-82
2021/11/23 02:25:59;;;;;;;26.65;18.13;;;;;;;1.96;100.00;102495.53;5050986;28;20128;-82
2021/11/23 02:28:24;;;;;;;25.40;17.60;;;;;;;1.98;100.00;102492.81;5033178;28;20040;-82
2021/11/23 02:30:53;;;;;;;24.25;18.67;;;;;;;1.96;100.00;102500.81;5071520;28;20084;-82
2021/11/23 02:33:22;;;;;;;27.77;18.98;;;;;;;2.02;100.00;102495.25;5054979;28;20051;-82
2021/11/23 02:35:48;;;;;;;25.95;18.70;;;;;;;2.03;100.00;102489.03;5054074;28;20402;-82
2021/11/23 02:38:16;;;;;;;24.05;17.20;;;;;;;1.97;100.00;102497.25;5054448;28;20097;-82
2021/11/23 02:40:42;;;;;;;28.27;20.42;;;;;;;1.96;100.00;102498.19;5071860;28;20493;-82
2021/11/23 02:43:08;;;;;;;23.48;17.65;;;;;;;1.99;100.00;102497.19;5072342;28;20032;-82
2021/11/23 02:45:34;;;;;;;26.35;17.52;;;;;;;2.02;100.00;102491.75;5035905;28;20073;-82
2021/11/23 02:48:01;;;;;;;22.98;17.80;;;;;;;2.05;100.00;102488.97;5053712;28;20052;-82
2021/11/23 02:50:28;;;;;;;23.63;16.63;;;;;;;2.07;100.00;102484.44;5050198;28;20044;-82
2021/11/23 02:52:54;;;;;;;23.85;18.00;;;;;;;2.06;100.00;102485.38;5069491;28;20082;-82
2021/11/23 02:55:25;;;;;;;23.95;17.05;;;;;;;2.10;100.00;102481.69;5072649;28;20485;-83
2021/11/23 02:57:51;;;;;;;26.80;16.42;;;;;;;2.10;100.00;102487.00;5071378;28;20040;-83
2021/11/23 03:00:27;;;;;;;22.38;17.33;;;;;;;2.19;100.00;102497.16;5072241;28;20044;-82
2021/11/23 03:02:53;;;;;;;24.15;16.65;;;;;;;2.22;100.00;102486.44;5054254;28;20443;-82
2021/11/23 03:05:21;;;;;;;23.17;16.00;;;;;;;2.22;100.00;102482.94;5054674;28;20036;-83
2021/11/23 03:07:49;;;;;;;26.08;16.58;;;;;;;2.21;100.00;102486.47;5070665;28;20036;-83
2021/11/23 03:10:16;;;;;;;21.02;15.85;;;;;;;2.25;100.00;102485.44;5054314;28;20071;-83
2021/11/23 03:12:46;;;;;;;25.50;17.25;;;;;;;2.31;100.00;102485.16;5067027;28;20041;-83
2021/11/23 03:15:11;;;;;;;21.58;17.30;;;;;;;2.28;100.00;102490.59;5033931;28;20102;-83
2021/11/23 03:17:37;;;;;;;26.20;18.73;;;;;;;2.33;100.00;102480.66;5032093;28;20132;-84
2021/11/23 03:20:05;;;;;;;23.67;17.42;;;;;;;2.36;100.00;102483.16;5070066;28;20036;-82
2021/11/23 03:22:30;;;;;;;25.08;17.17;;;;;;;2.40;100.00;102479.44;5071207;28;20789;-82
2021/11/23 03:24:56;;;;;;;22.08;17.58;;;;;;;2.46;100.00;102471.19;5053882;28;20265;-82
2021/11/23 03:27:21;;;;;;;24.85;17.83;;;;;;;2.52;100.00;102466.56;5053716;28;20509;-83
2021/11/23 03:29:47;;;;;;;27.73;18.40;;;;;;;2.55;100.00;102464.59;5067547;28;20063;-82
2021/11/23 03:32:13;;;;;;;31.05;19.27;;;;;;;2.59;100.00;102468.84;5064124;28;20458;-82
2021/11/23 03:34:39;;;;;;;27.80;19.48;;;;;;;2.60;100.00;102464.41;5059175;28;20045;-83
2021/11/23 03:37:09;;;;;;;24.75;19.52;;;;;;;2.63;100.00;102459.81;5049393;28;20103;-82
2021/11/23 03:39:36;;;;;;;30.17;19.42;;;;;;;2.64;100.00;102450.06;5040489;28;20397;-82
2021/11/23 03:42:03;;;;;;;29.30;20.35;;;;;;;2.70;100.00;102458.59;5062547;28;20131;-82
2021/11/23 03:44:29;;;;;;;27.55;21.50;;;;;;;2.73;100.00;102465.53;5065627;28;20094;-81
2021/11/23 03:46:55;;;;;;;27.30;19.65;;;;;;;2.76;100.00;102459.22;5049645;28;20037;-82
2021/11/23 03:49:21;;;;;;;25.98;20.38;;;;;;;2.79;100.00;102461.72;5065488;28;20051;-81
2021/11/23 03:51:46;;;;;;;26.55;22.02;;;;;;;2.81;100.00;102458.06;5047910;28;20044;-83
2021/11/23 03:54:13;;;;;;;31.25;21.23;;;;;;;2.79;100.00;102452.00;5047178;28;20570;-81
2021/11/23 03:56:40;;;;;;;29.38;20.98;;;;;;;2.81;100.00;102447.47;5058718;28;20098;-81
2021/11/23 03:59:06;;;;;;;28.23;20.55;;;;;;;2.84;100.00;102449.97;5063090;28;20047;-81
2021/11/23 04:01:31;;;;;;;32.45;23.33;;;;;;;2.89;100.00;102455.91;5063837;28;20048;-81
2021/11/23 04:03:56;;;;;;;29.83;21.42;;;;;;;2.87;100.00;102452.47;5060448;28;20131;-81
2021/11/23 04:06:22;;;;;;;28.25;21.27;;;;;;;2.88;100.00;102450.72;5047756;28;20397;-81
2021/11/23 04:08:47;;;;;;;30.55;22.05;;;;;;;2.92;100.00;102454.91;5047230;28;20037;-81
2021/11/23 04:11:12;;;;;;;32.28;23.67;;;;;;;2.93;100.00;102444.25;5030028;28;20139;-81
2021/11/23 04:13:40;;;;;;;32.60;21.40;;;;;;;2.92;100.00;102457.56;5064589;28;20480;-81
2021/11/23 04:16:06;;;;;;;32.22;23.23;;;;;;;2.93;100.00;102446.00;5064961;28;20044;-81
2021/11/23 04:18:31;;;;;;;33.92;22.17;;;;;;;2.96;100.00;102451.16;5024207;28;20059;-81
2021/11/23 04:20:56;;;;;;;33.90;22.58;;;;;;;2.99;100.00;102453.66;5061438;28;20041;-81
2021/11/23 04:23:22;;;;;;;34.33;24.48;;;;;;;3.03;100.00;102452.59;5042439;28;20132;-82
2021/11/23 04:25:47;;;;;;;33.22;23.83;;;;;;;3.06;100.00;102454.25;5046043;28;20049;-81
2021/11/23 04:28:12;;;;;;;35.70;25.70;;;;;;;3.11;100.00;102457.53;5041593;28;20036;-82
2021/11/23 04:30:38;;;;;;;36.40;25.83;;;;;;;3.10;100.00;102443.41;5055317;28;20086;-81
2021/11/23 04:33:03;;;;;;;32.38;22.92;;;;;;;3.07;100.00;102445.34;5017673;28;20578;-82
2021/11/23 04:35:31;;;;;;;41.65;26.73;;;;;;;3.13;100.00;102437.09;5055157;28;20585;-82
2021/11/23 04:37:58;;;;;;;37.75;26.65;;;;;;;3.18;100.00;102435.06;5045953;28;20095;-81
2021/11/23 04:40:23;;;;;;;35.35;25.02;;;;;;;3.19;100.00;102433.28;5047690;28;20040;-81
2021/11/23 04:42:48;;;;;;;39.40;26.52;;;;;;;3.23;100.00;102434.84;5051263;28;20033;-81
2021/11/23 04:45:14;;;;;;;35.35;24.35;;;;;;;3.26;100.00;102435.56;5048352;28;20045;-82
2021/11/23 04:47:40;;;;;;;36.25;23.77;;;;;;;3.30;100.00;102428.28;5048505;28;20131;-81
2021/11/23 04:50:08;;;;;;;36.15;27.83;;;;;;;3.33;100.00;102434.28;5063896;28;20107;-82
2021/11/23 04:52:33;;;;;;;33.78;22.48;;;;;;;3.34;100.00;102433.38;5062851;28;20040;-82
2021/11/23 04:55:00;;;;;;;38.08;28.50;;;;;;;3.37;100.00;102430.56;5039861;28;20101;-81
2021/11/23 04:57:25;;;;;;;40.40;26.88;;;;;;;3.41;100.00;102422.44;5064739;28;20055;-82
2021/11/23 04:59:51;;;;;;;38.95;27.45;;;;;;;3.42;100.00;102426.81;5048583;28;20044;-81
2021/11/23 05:02:18;;;;;;;42.28;30.55;;;;;;;3.44;100.00;102419.63;5049578;28;20069;-82
2021/11/23 05:04:44;;;;;;;41.50;25.80;;;;;;;3.46;100.00;102421.28;5047875;28;20048;-82
2021/11/23 05:07:09;;;;;;;42.72;31.23;;;;;;;3.45;100.00;102421.34;5016877;28;20043;-82
2021/11/23 05:09:35;;;;;;;42.28;30.73;;;;;;;3.47;100.00;102424.78;5060028;28;20444;-82
2021/11/23 05:12:00;;;;;;;45.67;30.55;;;;;;;3.47;100.00;102420.31;5065682;28;20048;-82
2021/11/23 05:14:25;;;;;;;45.20;28.63;;;;;;;3.48;100.00;102419.41;5029613;28;20093;-82
2021/11/23 05:16:51;;;;;;;46.13;28.67;;;;;;;3.49;100.00;102426.44;5058642;28;20041;-83
2021/11/23 05:19:17;;;;;;;51.85;32.67;;;;;;;3.51;100.00;102429.88;5064503;28;20496;-83
2021/11/23 05:21:42;;;;;;;51.00;30.33;;;;;;;3.55;100.00;102425.25;5030537;28;20045;-81
2021/11/23 05:24:11;;;;;;;48.90;29.08;;;;;;;3.55;100.00;102417.28;5035446;28;20048;-82
2021/11/23 05:26:37;;;;;;;44.58;32.15;;;;;;;3.57;100.00;102426.03;5054959;28;20520;-82
2021/11/23 05:29:04;;;;;;;54.72;35.97;;;;;;;3.59;100.00;102427.66;5030472;28;20132;-82
2021/11/23 05:31:29;;;;;;;50.38;35.67;;;;;;;3.62;100.00;102423.97;5059967;28;20400;-82
2021/11/23 05:33:55;;;;;;;48.83;29.95;;;;;;;3.61;100.00;102416.97;5066044;28;20032;-83
2021/11/23 05:36:20;;;;;;;49.72;30.65;;;;;;;3.61;100.00;102420.47;5068791;28;20068;-83
2021/11/23 05:38:46;;;;;;;49.08;31.50;;;;;;;3.66;100.00;102419.41;5068082;28;20040;-82
2021/11/23 05:41:11;;;;;;;54.80;35.17;;;;;;;3.67;100.00;102421.97;5049887;28;20128;-82
2021/11/23 05:43:37;;;;;;;55.97;35.92;;;;;;;3.70;100.00;102431.56;5047761;28;20032;-81
2021/11/23 05:46:02;;;;;;;49.42;31.13;;;;;;;3.72;100.00;102424.38;5060265;28;20075;-82
2021/11/23 05:48:27;;;;;;;50.92;31.02;;;;;;;3.73;100.00;102431.41;5033357;28;20562;-83
2021/11/23 05:50:53;;;;;;;50.50;35.42;;;;;;;3.77;100.00;102438.25;5059833;28;20071;-83
2021/11/23 05:53:18;;;;;;;54.28;32.78;;;;;;;3.77;100.00;102431.16;5066180;28;20082;-83
2021/11/23 05:55:43;;;;;;;47.25;30.80;;;;;;;3.77;100.00;102433.81;5046320;28;20163;-83
2021/11/23 05:58:09;;;;;;;53.65;31.80;;;;;;;3.75;100.00;102430.38;5068801;28;20048;-83
2021/11/23 06:00:35;;;;;;;52.08;34.35;;;;;;;3.78;100.00;102432.03;5049998;28;20068;-83
2021/11/23 06:03:01;;;;;;;56.80;36.75;;;;;;;3.81;100.00;102435.38;5048706;28;20067;-82
2021/11/23 06:05:27;;;;;;;58.83;33.97;;;;;;;3.81;100.00;102435.38;5050043;28;20782;-84
2021/11/23 06:07:54;;;;;;;65.97;41.03;;;;;;;3.81;100.00;102435.38;5044962;28;20396;-83
2021/11/23 06:10:21;;;;;;;57.72;34.08;;;;;;;3.81;100.00;102432.72;5059674;28;20127;-82
2021/11/23 06:12:46;;;;;;;67.85;38.70;;;;;;;3.81;100.00;102443.34;5056956;28;20135;-84
2021/11/23 06:15:13;;;;;;;62.42;36.60;;;;;;;3.83;100.00;102444.13;5061791;28;20119;-83
2021/11/23 06:17:41;;;;;;;67.47;38.90;;;;;;;3.83;100.00;102444.13;5061692;28;20048;-83
2021/11/23 06:20:07;;;;;;;74.95;42.45;;;;;;;3.86;100.00;102436.94;5063542;28;20049;-83
2021/11/23 06:22:34;;;;;;;72.85;45.13;;;;;;;3.83;100.00;102438.81;5057533;28;20051;-84
2021/11/23 06:25:01;;;;;;;70.97;42.85;;;;;;;3.84;100.00;102432.56;5049419;28;20492;-83
2021/11/23 06:27:26;;;;;;;62.40;36.65;;;;;;;3.84;100.00;102440.53;5046856;28;20037;-82
2021/11/23 06:29:52;;;;;;;63.92;38.00;;;;;;;3.83;100.00;102438.81;5067173;28;20033;-83
2021/11/23 06:32:17;;;;;;;66.55;37.20;;;;;;;3.87;100.00;102446.63;5048327;28;20068;-84
2021/11/23 06:34:43;;;;;;;66.57;37.70;;;;;;;3.89;100.00;102442.09;5038392;28;20044;-83
2021/11/23 06:37:08;;;;;;;70.85;40.35;;;;;;;3.90;100.00;102449.97;5029548;28;20045;-85
2021/11/23 06:39:35;;;;;;;64.57;40.63;;;;;;;3.91;100.00;102445.50;5063051;28;20049;-85
2021/11/23 06:42:02;;;;;;;68.68;38.25;;;;;;;3.91;100.00;102446.34;5028790;28;20037;-84
2021/11/23 06:44:27;;;;;;;70.03;41.00;;;;;;;3.89;100.00;102447.41;5028906;28;20048;-81
2021/11/23 06:46:52;;;;;;;69.57;40.78;;;;;;;3.91;100.00;102451.66;5029417;28;20040;-85
2021/11/23 06:49:18;;;;;;;77.85;45.50;;;;;;;3.94;100.00;102450.66;5028407;28;20044;-84
2021/11/23 06:51:43;;;;;;;80.38;44.70;;;;;;;3.96;100.00;102460.25;5048925;28;20503;-83
2021/11/23 06:54:09;;;;;;;77.70;45.13;;;;;;;3.95;100.00;102457.69;5048324;28;20052;-83
2021/11/23 06:56:35;;;;;;;80.07;45.20;;;;;;;3.92;100.00;102458.72;5049297;28;20098;-84
2021/11/23 06:59:02;;;;;;;67.15;39.60;;;;;;;3.93;100.00;102472.84;5024915;28;20555;-85
2021/11/23 07:01:33;;;;;;;71.45;39.45;;;;;;;3.94;100.00;102466.59;5031221;28;20056;-86
2021/11/23 07:03:59;;;;;;;75.28;39.17;;;;;;;3.94;100.00;102470.13;5062311;28;20051;-84
2021/11/23 07:06:25;;;;;;;78.35;45.30;;;;;;;3.94;100.00;102472.78;5044769;28;20102;-84
2021/11/23 07:08:50;;;;;;;71.25;39.53;;;;;;;3.93;100.00;102471.06;5047352;28;20068;-86
2021/11/23 07:11:16;;;;;;;73.40;44.15;;;;;;;3.95;100.00;102473.66;5015669;28;20905;-84
2021/11/23 07:13:42;;;;;;;69.20;37.97;;;;;;;3.98;100.00;102476.13;5062175;28;20099;-87
2021/11/23 07:16:09;;;;;;;66.25;38.65;;;;;;;3.99;100.00;102472.53;5069561;28;20051;-87
2021/11/23 07:18:34;;;;;;;63.38;35.85;;;;;;;3.99;100.00;102477.84;5068860;28;20509;-87
2021/11/23 07:20:59;;;;;;;74.13;44.25;;;;;;;4.02;100.00;102480.34;5046219;28;20048;-87
2021/11/23 07:23:25;;;;;;;70.00;40.78;;;;;;;4.00;100.00;102477.78;5062302;28;20382;-85
2021/11/23 07:25:50;;;;;;;68.05;41.88;;;;;;;4.03;100.00;102482.06;5041267;28;20060;-84
2021/11/23 07:28:16;;;;;;;63.75;37.95;;;;;;;4.05;100.00;102488.13;5042502;28;20045;-86
2021/11/23 07:30:44;;;;;;;64.00;37.78;;;;;;;4.04;100.00;102492.59;5050902;28;20356;-85
2021/11/23 07:33:10;;;;;;;61.40;36.08;;;;;;;4.05;100.00;102496.97;5032765;28;20033;-87
2021/11/23 07:35:35;;;;;;;58.63;37.00;;;;;;;4.04;100.00;102505.88;5050712;28;20441;-86
2021/11/23 07:38:02;;;;;;;60.72;38.00;;;;;;;4.09;100.00;102507.47;5049145;28;20053;-85
2021/11/23 07:40:30;;;;;;;55.78;34.13;;;;;;;4.12;100.00;102504.63;5068291;28;20044;-84
2021/11/23 07:42:55;;;;;;;54.22;34.00;;;;;;;4.13;100.00;102503.69;5050173;28;20033;-85
2021/11/23 07:45:22;;;;;;;54.08;33.42;;;;;;;4.13;100.00;102509.84;5038254;28;20481;-85
2021/11/23 07:47:48;;;;;;;60.58;34.42;;;;;;;4.13;100.00;102509.84;5050477;28;20111;-87
2021/11/23 07:50:14;;;;;;;60.00;34.05;;;;;;;4.14;100.00;102516.03;5051283;28;20032;-85
2021/11/23 07:52:40;;;;;;;59.75;36.50;;;;;;;4.16;100.00;102509.69;5047750;28;20041;-86
2021/11/23 07:55:06;;;;;;;59.58;38.03;;;;;;;4.18;100.00;102507.81;5040011;28;20043;-85
2021/11/23 07:57:33;;;;;;;57.85;35.20;;;;;;;4.18;100.00;102502.50;5062927;28;20044;-85
2021/11/23 07:59:59;;;;;;;57.45;34.83;;;;;;;4.19;100.00;102501.56;5041785;28;20044;-85
2021/11/23 08:02:24;;;;;;;64.13;37.70;;;;;;;4.23;100.00;102511.09;5034254;28;20063;-84
2021/11/23 08:04:50;;;;;;;62.33;38.38;;;;;;;4.23;100.00;102505.78;5045693;28;20048;-85
2021/11/23 08:07:15;;;;;;;65.07;37.67;;;;;;;4.27;100.00;102507.34;5045194;28;20039;-85
2021/11/23 08:09:43;;;;;;;72.38;41.17;;;;;;;4.31;100.00;102508.03;5063338;28;20047;-85
2021/11/23 08:12:09;;;;;;;72.57;41.03;;;;;;;4.32;100.00;102503.59;5048345;28;20071;-85
2021/11/23 08:14:35;;;;;;;66.65;38.72;;;;;;;4.34;100.00;102507.00;5043802;28;20041;-87
2021/11/23 08:17:01;;;;;;;66.68;40.60;;;;;;;4.33;100.00;102511.47;5049776;28;20044;-85
2021/11/23 08:19:26;;;;;;;62.28;36.00;;;;;;;4.34;100.00;102507.00;5065515;28;20401;-86
2021/11/23 08:21:52;;;;;;;63.65;39.28;;;;;;;4.39;100.00;102510.28;5064581;28;20133;-87
2021/11/23 08:24:17;;;;;;;61.50;35.25;;;;;;;4.41;100.00;102519.03;5032546;28;20542;-85
2021/11/23 08:26:43;;;;;;;62.42;38.25;;;;;;;4.43;100.00;102517.13;5055591;28;20128;-86
2021/11/23 08:29:08;;;;;;;64.22;36.40;;;;;;;4.43;100.00;102520.69;5049357;28;20047;-86
2021/11/23 08:31:35;;;;;;;63.72;36.00;;;;;;;4.44;100.00;102518.88;5047358;28;20044;-87
2021/11/23 08:34:04;;;;;;;64.85;36.92;;;;;;;4.44;100.00;102522.38;5046747;28;20037;-87
2021/11/23 08:36:33;;;;;;;66.93;37.20;;;;;;;4.50;100.00;102522.06;5049673;28;20051;-85
2021/11/23 08:39:00;;;;;;;66.60;39.40;;;;;;;4.52;100.00;102521.97;5048421;28;20040;-86
2021/11/23 08:41:26;;;;;;;71.90;44.65;;;;;;;4.54;100.00;102525.38;5058203;28;20054;-86
2021/11/23 08:43:52;;;;;;;82.60;44.22;;;;;;;4.56;100.00;102531.50;5031784;28;20075;-85
2021/11/23 08:46:18;;;;;;;82.88;45.50;;;;;;;4.58;100.00;102529.63;5061591;28;20106;-86
2021/11/23 08:48:43;;;;;;;80.00;38.97;;;;;;;4.57;100.00;102525.22;5028960;28;20044;-84
2021/11/23 08:51:12;;;;;;;82.70;39.90;;;;;;;4.58;100.00;102526.97;5047964;28;20036;-87
2021/11/23 08:53:39;;;;;;;89.18;48.33;;;;;;;4.64;100.00;102537.25;5062942;28;20036;-86
2021/11/23 08:56:05;;;;;;;86.20;46.22;;;;;;;4.66;100.00;102531.84;5045602;28;20049;-86
2021/11/23 08:58:32;;;;;;;100.75;52.28;;;;;;;4.71;100.00;102535.97;5063731;28;20086;-86
2021/11/23 09:00:58;;;;;;;91.53;46.58;;;;;;;4.75;100.00;102532.22;5028477;28;20041;-87
2021/11/23 09:03:25;;;;;;;103.55;49.63;;;;;;;4.78;100.00;102535.66;5044808;28;20071;-86
2021/11/23 09:05:52;;;;;;;96.95;44.70;;;;;;;4.79;100.00;102532.91;5045416;28;20086;-87
2021/11/23 09:08:18;;;;;;;105.30;49.80;;;;;;;4.86;100.00;102536.06;5032177;28;20393;-86
2021/11/23 09:10:44;;;;;;;103.78;50.00;;;;;;;4.86;100.00;102525.44;5065022;28;20044;-86
2021/11/23 09:13:10;;;;;;;110.70;47.53;;;;;;;4.87;100.00;102524.50;5055459;28;20051;-85
2021/11/23 09:15:37;;;;;;;119.13;50.17;;;;;;;4.88;100.00;102524.41;5044859;28;20045;-87
2021/11/23 09:18:04;;;;;;;119.82;55.38;;;;;;;4.89;100.00;102528.81;5030634;28;20079;-87
2021/11/23 09:20:35;;;;;;;137.38;56.30;;;;;;;4.92;100.00;102530.41;5067702;28;20040;-86
2021/11/23 09:23:07;;;;;;;154.75;65.18;;;;;;;4.95;100.00;102535.59;5047554;28;20119;-85
2021/11/23 09:25:33;;;;;;;136.50;55.63;;;;;;;5.03;100.00;102540.47;5053978;28;20037;-86
2021/11/23 09:28:01;;;;;;;139.98;56.85;;;;;;;4.97;100.00;102533.69;5068689;28;20040;-85
2021/11/23 09:30:29;;;;;;;139.77;59.20;;;;;;;4.97;100.00;102541.66;5035443;28;20044;-85
2021/11/23 09:32:56;;;;;;;153.80;60.65;;;;;;;5.00;100.00;102541.50;5051598;28;20263;-86
2021/11/23 09:35:22;;;;;;;149.05;51.03;;;;;;;5.03;100.00;102549.31;5051903;28;20166;-87
2021/11/23 09:37:48;;;;;;;162.13;54.97;;;;;;;5.07;100.00;102534.91;5050949;28;20075;-87
2021/11/23 09:40:13;;;;;;;148.65;52.60;;;;;;;5.10;100.00;102540.03;5069753;28;20123;-88
2021/11/23 09:42:39;;;;;;;177.80;59.78;;;;;;;5.15;100.00;102542.44;5049917;28;20044;-85
2021/11/23 09:45:05;;;;;;;139.95;50.42;;;;;;;5.17;100.00;102541.41;5032805;28;20063;-84
2021/11/23 09:47:31;;;;;;;153.52;57.95;;;;;;;5.19;100.00;102541.34;5035098;28;20551;-88
2021/11/23 09:49:58;;;;;;;157.27;52.03;;;;;;;5.21;100.00;102542.13;5051280;28;20044;-86
2021/11/23 09:52:23;;;;;;;157.77;53.80;;;;;;;5.20;100.00;102551.03;5069405;28;20143;-84
2021/11/23 09:54:49;;;;;;;182.73;65.40;;;;;;;5.22;100.00;102540.31;5047357;28;20567;-86
2021/11/23 09:57:14;;;;;;;160.80;57.92;;;;;;;5.30;100.00;102540.72;5030861;28;20041;-86
2021/11/23 09:59:40;;;;;;;136.27;53.83;;;;;;;5.35;100.00;102551.94;5066468;28;20036;-85
2021/11/23 10:02:06;;;;;;;158.52;58.72;;;;;;;5.38;100.00;102543.78;5034829;28;20175;-85
2021/11/23 10:04:33;;;;;;;137.63;48.55;;;;;;;5.37;100.00;102542.09;5051322;28;20094;-86
2021/11/23 10:07:04;;;;;;;140.77;55.90;;;;;;;5.47;100.00;102540.63;5033744;28;20199;-87
2021/11/23 10:09:33;;;;;;;131.75;52.25;;;;;;;5.53;100.00;102534.94;5035044;28;20131;-87
2021/11/23 10:12:24;;;;;;;178.85;57.72;;;;;;;5.60;100.00;102543.41;5051149;28;20112;-85
2021/11/23 10:15:13;;;;;;;152.18;52.88;;;;;;;5.63;100.00;102538.75;5050533;28;20492;-87
2021/11/23 10:17:41;;;;;;;154.38;63.72;;;;;;;5.68;100.00;102524.34;5066756;28;20082;-86
2021/11/23 10:20:25;;;;;;;114.55;47.38;;;;;;;5.68;100.00;102527.84;5051293;28;20123;-85
2021/11/23 10:22:51;;;;;;;133.35;49.90;;;;;;;5.68;100.00;102535.00;5047084;28;20041;-84
2021/11/23 10:25:17;;;;;;;144.30;52.22;;;;;;;5.62;100.00;102513.09;5051322;28;20041;-87
2021/11/23 10:27:43;;;;;;;137.48;48.00;;;;;;;5.71;100.00;102529.47;5068595;28;20185;-88
2021/11/23 10:30:09;;;;;;;139.10;55.47;;;;;;;5.78;100.00;102545.03;5050964;28;20038;-86
2021/11/23 10:32:47;;;;;;;134.63;51.72;;;;;;;5.80;100.00;102534.25;5050498;28;20079;-85
2021/11/23 10:35:15;;;;;;;144.82;48.47;;;;;;;5.77;100.00;102540.63;5068064;28;20058;-86
2021/11/23 10:37:41;;;;;;;139.60;48.97;;;;;;;5.75;100.00;102531.00;5050490;28;20556;-86
2021/11/23 10:40:22;;;;;;;152.05;52.05;;;;;;;5.80;100.00;102528.94;5067870;28;20125;-86
2021/11/23 10:42:53;;;;;;;133.93;56.58;;;;;;;5.81;100.00;102536.84;5049644;28;20118;-87
2021/11/23 10:45:19;;;;;;;120.82;51.95;;;;;;;5.81;100.00;102536.84;5033935;28;20037;-86
2021/11/23 10:47:47;;;;;;;136.35;45.22;;;;;;;5.78;100.00;102536.16;5068279;28;20079;-87
2021/11/23 10:50:14;;;;;;;129.73;46.22;;;;;;;5.78;100.00;102529.03;5052292;28;20067;-85
2021/11/23 10:52:45;;;;;;;115.22;50.67;;;;;;;5.86;100.00;102534.75;5053906;28;20131;-88
2021/11/23 10:55:17;;;;;;;127.10;52.58;;;;;;;5.92;100.00;102538.00;5054468;28;20424;-85
2021/11/23 10:57:43;;;;;;;112.95;50.53;;;;;;;5.95;100.00;102536.03;5053645;28;20070;-84
2021/11/23 11:00:11;;;;;;;130.65;59.90;;;;;;;6.00;100.00;102533.97;5021495;28;20044;-87
2021/11/23 11:02:39;;;;;;;128.45;56.47;;;;;;;6.05;100.00;102534.53;5055749;28;20047;-88